VOBG/BLR METAR and TAF weather

Enter ICAO airport designator
Station Type Date Time Source
VOBG METAR 2021/10/22 18:00 UTC NOAA

VOBG 221800Z 12004KT 5000 -TSRA SCT012 FEW025CB BKN080 22/21 Q1018 NOSIG


Station Type Date Time Source
VOBG Decoded METAR 2021/10/22 18:00 UTC NOAA

Bangalore / Hindustan, India (VOBG) 12-57N 077-40E
Oct 22, 2021 - 02:00 PM EDT / 2021.10.22 1800 UTC
Wind: from the ESE (120 degrees) at 5 MPH (4 KT):0
Visibility: 3 mile(s):0
Sky conditions: mostly cloudy
Weather: light rain with thunder; Cumulonimbus clouds observed
Temperature: 71 F (22 C)
Dew Point: 69 F (21 C)
Relative Humidity: 94%
Pressure (altimeter): 30.06 in. Hg (1018 hPa)
ob: VOBG 221800Z 12004KT 5000 -TSRA SCT012 FEW025CB BKN080 22/21 Q1018 NOSIG
cycle: 18

Station Type Date Time Source
VOBG TAF 2021/05/01 09:00 UTC NOAA

TAF VOBG 010800Z 0109/0118 09010KT 6000 SCT015
TEMPO 0112/0118 5000 TSRA RA SCT015 SCT020 FEW025CB BKN080

Example: see airport list